sensor_id;sensor_type;location;lat;lon;timestamp;pressure;altitude;pressure_sealevel;temperature;humidity
4469;BME280;2247;42.666;23.292;2023-01-28T02:57:32;93815.09;;;5.14;62.15
4469;BME280;2247;42.666;23.292;2023-01-28T03:08:11;93820.84;;;4.80;63.22
4469;BME280;2247;42.666;23.292;2023-01-28T03:10:56;93797.88;;;4.50;63.77
4469;BME280;2247;42.666;23.292;2023-01-28T03:13:47;93820.88;;;4.53;64.18
4469;BME280;2247;42.666;23.292;2023-01-28T03:16:35;93817.59;;;4.67;64.27
4469;BME280;2247;42.666;23.292;2023-01-28T03:19:23;93812.88;;;4.64;63.55
4469;BME280;2247;42.666;23.292;2023-01-28T03:22:09;93806.97;;;4.74;63.86
4469;BME280;2247;42.666;23.292;2023-01-28T03:24:52;93813.66;;;4.65;63.56
4469;BME280;2247;42.666;23.292;2023-01-28T03:27:43;93796.94;;;4.61;64.11
4469;BME280;2247;42.666;23.292;2023-01-28T03:30:43;93818.81;;;4.87;63.86
4469;BME280;2247;42.666;23.292;2023-01-28T03:33:32;93823.44;;;5.11;63.93
4469;BME280;2247;42.666;23.292;2023-01-28T03:36:19;93816.69;;;5.21;62.56
4469;BME280;2247;42.666;23.292;2023-01-28T03:39:04;93818.66;;;5.40;61.54
4469;BME280;2247;42.666;23.292;2023-01-28T03:44:17;93825.50;;;5.09;62.09
4469;BME280;2247;42.666;23.292;2023-01-28T03:47:11;93831.31;;;5.17;61.73
4469;BME280;2247;42.666;23.292;2023-01-28T03:49:42;93830.31;;;5.28;61.57
4469;BME280;2247;42.666;23.292;2023-01-28T03:52:16;93831.84;;;5.19;61.37
4469;BME280;2247;42.666;23.292;2023-01-28T03:57:25;93840.63;;;5.07;62.50
4469;BME280;2247;42.666;23.292;2023-01-28T03:59:58;93840.28;;;4.99;62.06
4469;BME280;2247;42.666;23.292;2023-01-28T04:02:39;93816.00;;;4.98;62.54
4469;BME280;2247;42.666;23.292;2023-01-28T04:05:16;93828.78;;;5.32;61.82
4469;BME280;2247;42.666;23.292;2023-01-28T04:10:31;93804.06;;;5.02;61.39
4469;BME280;2247;42.666;23.292;2023-01-28T04:21:00;93863.25;;;5.29;62.09
4469;BME280;2247;42.666;23.292;2023-01-28T04:23:27;93844.03;;;5.45;60.35
4469;BME280;2247;42.666;23.292;2023-01-28T04:28:31;93862.19;;;5.25;61.91
4469;BME280;2247;42.666;23.292;2023-01-28T04:31:01;93872.22;;;5.43;61.19
4469;BME280;2247;42.666;23.292;2023-01-28T04:33:33;93850.31;;;5.49;61.42
4469;BME280;2247;42.666;23.292;2023-01-28T04:36:07;93853.50;;;5.56;60.68
4469;BME280;2247;42.666;23.292;2023-01-28T04:38:36;93855.41;;;5.29;60.99
4469;BME280;2247;42.666;23.292;2023-01-28T04:41:04;93863.47;;;5.27;61.97
4469;BME280;2247;42.666;23.292;2023-01-28T04:46:11;93867.78;;;5.06;62.75
4469;BME280;2247;42.666;23.292;2023-01-28T04:48:40;93884.63;;;5.26;62.72
4469;BME280;2247;42.666;23.292;2023-01-28T04:51:08;93886.88;;;5.12;63.00
4469;BME280;2247;42.666;23.292;2023-01-28T04:58:47;93885.25;;;5.38;62.67
4469;BME280;2247;42.666;23.292;2023-01-28T05:11:57;93887.31;;;5.73;61.33
4469;BME280;2247;42.666;23.292;2023-01-28T05:14:24;93901.75;;;5.85;60.94
4469;BME280;2247;42.666;23.292;2023-01-28T05:16:51;93898.69;;;5.93;60.40
4469;BME280;2247;42.666;23.292;2023-01-28T05:19:18;93903.38;;;5.91;60.34
4469;BME280;2247;42.666;23.292;2023-01-28T05:21:45;93908.13;;;5.95;60.14
4469;BME280;2247;42.666;23.292;2023-01-28T05:26:39;93900.59;;;6.08;59.62
4469;BME280;2247;42.666;23.292;2023-01-28T05:29:08;93914.94;;;6.01;59.75
4469;BME280;2247;42.666;23.292;2023-01-28T05:31:35;93909.16;;;5.93;59.36
4469;BME280;2247;42.666;23.292;2023-01-28T05:34:02;93906.41;;;5.78;60.20
4469;BME280;2247;42.666;23.292;2023-01-28T05:36:29;93913.72;;;5.76;59.75
4469;BME280;2247;42.666;23.292;2023-01-28T05:38:56;93914.59;;;5.50;59.72
4469;BME280;2247;42.666;23.292;2023-01-28T05:41:23;93909.97;;;5.25;61.25
4469;BME280;2247;42.666;23.292;2023-01-28T05:43:50;93923.41;;;5.39;60.23
4469;BME280;2247;42.666;23.292;2023-01-28T05:46:19;93934.81;;;5.33;60.80
4469;BME280;2247;42.666;23.292;2023-01-28T05:48:45;93928.09;;;5.37;61.11
4469;BME280;2247;42.666;23.292;2023-01-28T05:51:12;93915.66;;;5.54;59.39
4469;BME280;2247;42.666;23.292;2023-01-28T05:56:14;93913.00;;;5.49;59.86
4469;BME280;2247;42.666;23.292;2023-01-28T05:58:41;93924.84;;;5.62;60.10
4469;BME280;2247;42.666;23.292;2023-01-28T06:01:08;93920.88;;;5.54;59.57
4469;BME280;2247;42.666;23.292;2023-01-28T06:03:37;93912.41;;;5.37;59.82
4469;BME280;2247;42.666;23.292;2023-01-28T06:06:04;93921.00;;;5.74;58.08
4469;BME280;2247;42.666;23.292;2023-01-28T06:08:31;93929.16;;;5.41;59.36
4469;BME280;2247;42.666;23.292;2023-01-28T06:10:58;93943.94;;;5.62;60.71
4469;BME280;2247;42.666;23.292;2023-01-28T06:13:25;93953.56;;;5.57;60.80
4469;BME280;2247;42.666;23.292;2023-01-28T06:15:52;93963.00;;;5.58;60.34
4469;BME280;2247;42.666;23.292;2023-01-28T06:18:19;93964.69;;;5.42;59.94
4469;BME280;2247;42.666;23.292;2023-01-28T06:20:49;93963.09;;;5.41;60.85
4469;BME280;2247;42.666;23.292;2023-01-28T06:23:16;93966.22;;;5.38;60.56
4469;BME280;2247;42.666;23.292;2023-01-28T06:28:18;93961.47;;;5.30;61.56
4469;BME280;2247;42.666;23.292;2023-01-28T06:33:21;93979.94;;;5.55;60.18
4469;BME280;2247;42.666;23.292;2023-01-28T06:35:50;93981.91;;;5.75;59.88
4469;BME280;2247;42.666;23.292;2023-01-28T06:48:38;93998.63;;;5.10;61.21
4469;BME280;2247;42.666;23.292;2023-01-28T06:51:06;94012.03;;;5.19;61.36
4469;BME280;2247;42.666;23.292;2023-01-28T06:53:33;94005.84;;;5.03;60.99
4469;BME280;2247;42.666;23.292;2023-01-28T06:56:01;94021.63;;;4.91;61.60
4469;BME280;2247;42.666;23.292;2023-01-28T06:58:28;94024.88;;;4.77;61.70
4469;BME280;2247;42.666;23.292;2023-01-28T07:03:31;94012.63;;;4.77;62.55
4469;BME280;2247;42.666;23.292;2023-01-28T07:05:58;93990.41;;;4.53;62.81
4469;BME280;2247;42.666;23.292;2023-01-28T07:08:26;94009.94;;;4.94;62.12
4469;BME280;2247;42.666;23.292;2023-01-28T07:10:53;94025.59;;;5.21;62.14
4469;BME280;2247;42.666;23.292;2023-01-28T07:13:23;94035.78;;;5.17;60.79
4469;BME280;2247;42.666;23.292;2023-01-28T07:15:49;94031.41;;;5.01;61.53
4469;BME280;2247;42.666;23.292;2023-01-28T07:18:16;94038.84;;;5.14;61.86
4469;BME280;2247;42.666;23.292;2023-01-28T07:20:43;94038.78;;;5.31;62.02
4469;BME280;2247;42.666;23.292;2023-01-28T07:23:10;94028.78;;;5.23;61.19
4469;BME280;2247;42.666;23.292;2023-01-28T07:28:14;94037.34;;;5.18;60.55
4469;BME280;2247;42.666;23.292;2023-01-28T07:30:47;94039.41;;;5.43;60.66
4469;BME280;2247;42.666;23.292;2023-01-28T07:33:14;94036.06;;;5.21;60.92
4469;BME280;2247;42.666;23.292;2023-01-28T07:35:43;94046.63;;;5.31;60.34
4469;BME280;2247;42.666;23.292;2023-01-28T07:38:10;94057.53;;;5.28;61.27
4469;BME280;2247;42.666;23.292;2023-01-28T07:40:38;94060.88;;;5.45;60.93
4469;BME280;2247;42.666;23.292;2023-01-28T07:43:07;94049.56;;;5.66;59.06
4469;BME280;2247;42.666;23.292;2023-01-28T07:45:36;94060.19;;;5.33;59.76
4469;BME280;2247;42.666;23.292;2023-01-28T07:58:24;94063.75;;;5.48;59.51
4469;BME280;2247;42.666;23.292;2023-01-28T08:00:55;94078.03;;;5.41;60.36
4469;BME280;2247;42.666;23.292;2023-01-28T08:03:24;94094.41;;;5.31;60.66
4469;BME280;2247;42.666;23.292;2023-01-28T08:05:52;94068.97;;;5.22;60.57
4469;BME280;2247;42.666;23.292;2023-01-28T08:08:19;94051.81;;;5.04;61.05
4469;BME280;2247;42.666;23.292;2023-01-28T08:10:47;94089.00;;;5.38;61.32
4469;BME280;2247;42.666;23.292;2023-01-28T08:13:17;94069.03;;;5.27;60.17
4469;BME280;2247;42.666;23.292;2023-01-28T08:20:57;94089.91;;;5.27;61.14
4469;BME280;2247;42.666;23.292;2023-01-28T08:23:26;94091.25;;;5.29;60.69
4469;BME280;2247;42.666;23.292;2023-01-28T08:25:53;94077.66;;;5.54;60.25
4469;BME280;2247;42.666;23.292;2023-01-28T08:28:21;94089.25;;;5.14;60.26
4469;BME280;2247;42.666;23.292;2023-01-28T08:30:48;94084.22;;;5.08;61.75
4469;BME280;2247;42.666;23.292;2023-01-28T08:33:19;94072.00;;;5.13;61.31
4469;BME280;2247;42.666;23.292;2023-01-28T08:35:47;94089.59;;;5.45;59.93
4469;BME280;2247;42.666;23.292;2023-01-28T08:38:17;94096.00;;;5.59;60.65
4469;BME280;2247;42.666;23.292;2023-01-28T08:40:47;94084.41;;;5.77;59.65
4469;BME280;2247;42.666;23.292;2023-01-28T08:45:51;94091.06;;;5.36;59.85
4469;BME280;2247;42.666;23.292;2023-01-28T08:48:19;94096.25;;;5.31;60.48
4469;BME280;2247;42.666;23.292;2023-01-28T08:50:48;94093.47;;;5.42;60.78
4469;BME280;2247;42.666;23.292;2023-01-28T08:55:52;94090.66;;;5.49;60.38
4469;BME280;2247;42.666;23.292;2023-01-28T08:58:20;94066.72;;;5.30;60.84
4469;BME280;2247;42.666;23.292;2023-01-28T09:00:48;94087.59;;;5.52;59.33
4469;BME280;2247;42.666;23.292;2023-01-28T09:03:16;94092.06;;;5.57;60.42
4469;BME280;2247;42.666;23.292;2023-01-28T09:05:44;94068.00;;;5.28;59.59
4469;BME280;2247;42.666;23.292;2023-01-28T09:10:56;94093.81;;;5.24;60.23
4469;BME280;2247;42.666;23.292;2023-01-28T09:13:24;94106.09;;;5.24;61.48
4469;BME280;2247;42.666;23.292;2023-01-28T09:15:54;94095.47;;;5.08;61.12
4469;BME280;2247;42.666;23.292;2023-01-28T09:18:25;94094.47;;;5.14;61.22
4469;BME280;2247;42.666;23.292;2023-01-28T09:23:32;94107.34;;;4.99;61.52
4469;BME280;2247;42.666;23.292;2023-01-28T09:26:10;94062.06;;;4.67;61.75
4469;BME280;2247;42.666;23.292;2023-01-28T09:28:42;94103.84;;;4.89;62.17
4469;BME280;2247;42.666;23.292;2023-01-28T09:31:13;94088.41;;;4.87;61.84
4469;BME280;2247;42.666;23.292;2023-01-28T09:33:40;94104.44;;;4.96;62.14
4469;BME280;2247;42.666;23.292;2023-01-28T09:36:10;94077.56;;;4.73;62.00
4469;BME280;2247;42.666;23.292;2023-01-28T09:38:37;94095.16;;;4.61;62.26
4469;BME280;2247;42.666;23.292;2023-01-28T09:41:23;94110.44;;;4.74;63.18
4469;BME280;2247;42.666;23.292;2023-01-28T09:44:04;94105.06;;;4.64;63.52
4469;BME280;2247;42.666;23.292;2023-01-28T09:46:33;94097.47;;;4.80;63.20
4469;BME280;2247;42.666;23.292;2023-01-28T09:49:04;94099.47;;;4.94;62.90
4469;BME280;2247;42.666;23.292;2023-01-28T09:54:16;94097.41;;;4.96;62.48
4469;BME280;2247;42.666;23.292;2023-01-28T09:56:58;94075.56;;;4.81;62.20
4469;BME280;2247;42.666;23.292;2023-01-28T09:59:33;94104.06;;;4.87;62.36
4469;BME280;2247;42.666;23.292;2023-01-28T10:02:10;94093.28;;;5.00;62.17
4469;BME280;2247;42.666;23.292;2023-01-28T10:04:53;94098.25;;;4.80;62.29
4469;BME280;2247;42.666;23.292;2023-01-28T10:07:35;94093.00;;;4.58;63.11
4469;BME280;2247;42.666;23.292;2023-01-28T10:10:12;94095.88;;;4.40;64.15
4469;BME280;2247;42.666;23.292;2023-01-28T10:15:32;94104.56;;;4.62;63.74
4469;BME280;2247;42.666;23.292;2023-01-28T10:18:08;94097.06;;;4.71;64.25
4469;BME280;2247;42.666;23.292;2023-01-28T10:20:39;94095.66;;;4.63;64.10
4469;BME280;2247;42.666;23.292;2023-01-28T10:23:14;94106.38;;;4.62;64.19
4469;BME280;2247;42.666;23.292;2023-01-28T10:25:43;94104.47;;;4.57;64.32
4469;BME280;2247;42.666;23.292;2023-01-28T10:28:18;94086.19;;;4.35;64.45
4469;BME280;2247;42.666;23.292;2023-01-28T10:30:47;94090.78;;;4.50;64.05
4469;BME280;2247;42.666;23.292;2023-01-28T10:33:19;94086.31;;;4.46;64.28
4469;BME280;2247;42.666;23.292;2023-01-28T10:35:48;94100.78;;;4.36;64.55
4469;BME280;2247;42.666;23.292;2023-01-28T10:38:20;94083.75;;;4.51;65.07
4469;BME280;2247;42.666;23.292;2023-01-28T10:40:49;94061.13;;;4.34;64.73
4469;BME280;2247;42.666;23.292;2023-01-28T10:43:21;94084.25;;;4.48;64.32
4469;BME280;2247;42.666;23.292;2023-01-28T10:46:03;94082.50;;;4.53;64.61
4469;BME280;2247;42.666;23.292;2023-01-28T10:48:34;94086.34;;;4.67;64.06
4469;BME280;2247;42.666;23.292;2023-01-28T11:01:47;94104.66;;;5.11;63.64
4469;BME280;2247;42.666;23.292;2023-01-28T11:04:18;94081.78;;;5.23;63.18
4469;BME280;2247;42.666;23.292;2023-01-28T11:06:56;94093.31;;;5.27;62.19
4469;BME280;2247;42.666;23.292;2023-01-28T11:09:27;94067.97;;;5.01;61.51
4469;BME280;2247;42.666;23.292;2023-01-28T11:11:56;94081.44;;;5.14;62.53
4469;BME280;2247;42.666;23.292;2023-01-28T11:14:25;94087.41;;;5.10;62.37
4469;BME280;2247;42.666;23.292;2023-01-28T11:16:57;94089.81;;;5.17;62.13
4469;BME280;2247;42.666;23.292;2023-01-28T11:19:30;94089.72;;;5.33;62.13
4469;BME280;2247;42.666;23.292;2023-01-28T11:21:58;94080.00;;;5.29;61.37
4469;BME280;2247;42.666;23.292;2023-01-28T11:27:10;94075.97;;;5.16;61.76
4469;BME280;2247;42.666;23.292;2023-01-28T11:32:20;94064.09;;;5.03;61.41
4469;BME280;2247;42.666;23.292;2023-01-28T11:34:49;94075.28;;;5.26;61.62
4469;BME280;2247;42.666;23.292;2023-01-28T11:37:16;94086.50;;;5.26;61.15
4469;BME280;2247;42.666;23.292;2023-01-28T11:39:44;94069.75;;;5.22;60.86
4469;BME280;2247;42.666;23.292;2023-01-28T11:42:14;94064.78;;;4.99;61.38
4469;BME280;2247;42.666;23.292;2023-01-28T11:47:39;94069.69;;;5.39;60.62
4469;BME280;2247;42.666;23.292;2023-01-28T11:50:19;94074.16;;;5.70;60.35
4469;BME280;2247;42.666;23.292;2023-01-28T11:53:01;94069.69;;;5.66;60.14
4469;BME280;2247;42.666;23.292;2023-01-28T11:55:40;94076.19;;;5.63;59.56
4469;BME280;2247;42.666;23.292;2023-01-28T12:04:02;94078.13;;;5.46;59.72
4469;BME280;2247;42.666;23.292;2023-01-28T12:06:50;94071.78;;;5.42;59.71
4469;BME280;2247;42.666;23.292;2023-01-28T12:09:34;94072.03;;;5.40;59.49
4469;BME280;2247;42.666;23.292;2023-01-28T12:12:34;94068.38;;;5.41;60.07
4469;BME280;2247;42.666;23.292;2023-01-28T12:18:05;94080.53;;;5.52;59.53
4469;BME280;2247;42.666;23.292;2023-01-28T12:20:49;94049.06;;;5.15;59.99
4469;BME280;2247;42.666;23.292;2023-01-28T12:31:26;94064.41;;;5.12;60.68
4469;BME280;2247;42.666;23.292;2023-01-28T12:34:17;94080.25;;;5.54;59.94
4469;BME280;2247;42.666;23.292;2023-01-28T12:37:03;94083.03;;;5.42;60.12
4469;BME280;2247;42.666;23.292;2023-01-28T12:39:42;94084.84;;;5.42;60.58
4469;BME280;2247;42.666;23.292;2023-01-28T12:42:15;94093.84;;;5.51;59.66
4469;BME280;2247;42.666;23.292;2023-01-28T12:44:50;94078.63;;;5.21;60.56
4469;BME280;2247;42.666;23.292;2023-01-28T12:49:57;94093.88;;;5.07;61.22
4469;BME280;2247;42.666;23.292;2023-01-28T12:52:31;94097.88;;;5.15;61.05
4469;BME280;2247;42.666;23.292;2023-01-28T12:57:38;94100.91;;;5.29;60.65
4469;BME280;2247;42.666;23.292;2023-01-28T13:02:50;94107.53;;;5.14;60.44
4469;BME280;2247;42.666;23.292;2023-01-28T13:05:21;94101.34;;;5.21;60.72
4469;BME280;2247;42.666;23.292;2023-01-28T13:08:02;94093.69;;;4.92;61.28
4469;BME280;2247;42.666;23.292;2023-01-28T13:13:12;94122.00;;;5.00;61.55
4469;BME280;2247;42.666;23.292;2023-01-28T13:15:42;94089.63;;;5.01;61.27
4469;BME280;2247;42.666;23.292;2023-01-28T13:18:29;94095.59;;;4.97;61.39
4469;BME280;2247;42.666;23.292;2023-01-28T13:21:02;94118.41;;;5.28;60.86
4469;BME280;2247;42.666;23.292;2023-01-28T13:23:41;94124.03;;;5.42;61.08
4469;BME280;2247;42.666;23.292;2023-01-28T13:31:22;94124.41;;;5.29;61.58
4469;BME280;2247;42.666;23.292;2023-01-28T13:34:02;94111.84;;;5.26;60.83
4469;BME280;2247;42.666;23.292;2023-01-28T13:36:42;94113.78;;;5.13;61.22
4469;BME280;2247;42.666;23.292;2023-01-28T13:39:25;94131.69;;;5.27;60.82
4469;BME280;2247;42.666;23.292;2023-01-28T13:44:36;94116.16;;;5.15;60.64
4469;BME280;2247;42.666;23.292;2023-01-28T13:47:20;94115.31;;;5.09;60.80
4469;BME280;2247;42.666;23.292;2023-01-28T13:52:28;94145.31;;;5.50;60.56
4469;BME280;2247;42.666;23.292;2023-01-28T13:55:03;94144.31;;;5.57;60.44
4469;BME280;2247;42.666;23.292;2023-01-28T14:00:41;94152.56;;;5.70;60.36
4469;BME280;2247;42.666;23.292;2023-01-28T14:08:42;94150.25;;;5.03;61.82
4469;BME280;2247;42.666;23.292;2023-01-28T14:11:57;94158.06;;;5.03;62.18
4469;BME280;2247;42.666;23.292;2023-01-28T14:17:31;94157.66;;;5.11;61.88
4469;BME280;2247;42.666;23.292;2023-01-28T14:20:03;94149.50;;;5.08;61.43
4469;BME280;2247;42.666;23.292;2023-01-28T14:22:32;94170.22;;;5.36;61.49
4469;BME280;2247;42.666;23.292;2023-01-28T14:25:03;94178.03;;;5.14;61.24
4469;BME280;2247;42.666;23.292;2023-01-28T14:27:36;94150.72;;;5.00;61.68
4469;BME280;2247;42.666;23.292;2023-01-28T14:30:13;94173.13;;;4.96;61.79
4469;BME280;2247;42.666;23.292;2023-01-28T14:40:29;94145.84;;;4.49;62.72
4469;BME280;2247;42.666;23.292;2023-01-28T14:45:47;94179.16;;;4.80;62.36
4469;BME280;2247;42.666;23.292;2023-01-28T14:58:44;94206.50;;;4.94;62.44
4469;BME280;2247;42.666;23.292;2023-01-28T15:14:20;94207.88;;;4.47;63.30
4469;BME280;2247;42.666;23.292;2023-01-28T15:16:56;94201.09;;;4.62;63.48
4469;BME280;2247;42.666;23.292;2023-01-28T15:24:35;94208.97;;;4.51;63.19
4469;BME280;2247;42.666;23.292;2023-01-28T15:29:40;94212.47;;;4.56;63.54
4469;BME280;2247;42.666;23.292;2023-01-28T15:32:22;94215.00;;;4.68;63.18
4469;BME280;2247;42.666;23.292;2023-01-28T15:34:49;94219.81;;;4.59;63.58
4469;BME280;2247;42.666;23.292;2023-01-28T15:37:17;94224.31;;;4.64;63.54
4469;BME280;2247;42.666;23.292;2023-01-28T15:44:57;94221.94;;;4.46;63.57
4469;BME280;2247;42.666;23.292;2023-01-28T15:47:27;94236.56;;;4.47;63.17
4469;BME280;2247;42.666;23.292;2023-01-28T15:49:57;94231.91;;;4.65;63.54
4469;BME280;2247;42.666;23.292;2023-01-28T15:52:32;94230.16;;;4.71;62.55
4469;BME280;2247;42.666;23.292;2023-01-28T15:55:05;94238.31;;;4.58;62.77
4469;BME280;2247;42.666;23.292;2023-01-28T16:00:14;94234.13;;;4.73;62.77
4469;BME280;2247;42.666;23.292;2023-01-28T16:02:50;94254.75;;;4.75;62.79
4469;BME280;2247;42.666;23.292;2023-01-28T16:05:32;94211.84;;;4.49;63.00
4469;BME280;2247;42.666;23.292;2023-01-28T16:08:08;94241.47;;;4.60;63.08
4469;BME280;2247;42.666;23.292;2023-01-28T16:13:16;94251.19;;;4.81;62.67
4469;BME280;2247;42.666;23.292;2023-01-28T16:15:53;94241.66;;;4.70;63.16
4469;BME280;2247;42.666;23.292;2023-01-28T16:18:38;94247.50;;;4.77;62.84
4469;BME280;2247;42.666;23.292;2023-01-28T16:21:19;94258.63;;;4.89;62.73
4469;BME280;2247;42.666;23.292;2023-01-28T16:23:57;94240.84;;;4.69;62.45
4469;BME280;2247;42.666;23.292;2023-01-28T16:26:31;94260.84;;;4.64;62.79
4469;BME280;2247;42.666;23.292;2023-01-28T16:29:12;94258.47;;;4.79;62.39
4469;BME280;2247;42.666;23.292;2023-01-28T16:31:49;94248.69;;;4.69;62.10
4469;BME280;2247;42.666;23.292;2023-01-28T16:34:23;94247.25;;;4.62;62.14
4469;BME280;2247;42.666;23.292;2023-01-28T16:36:54;94272.31;;;4.80;62.09
4469;BME280;2247;42.666;23.292;2023-01-28T16:42:01;94275.41;;;4.60;62.78
4469;BME280;2247;42.666;23.292;2023-01-28T16:47:07;94288.34;;;4.71;62.67
4469;BME280;2247;42.666;23.292;2023-01-28T16:49:34;94286.41;;;4.62;62.59
4469;BME280;2247;42.666;23.292;2023-01-28T16:52:03;94273.72;;;4.54;62.74
4469;BME280;2247;42.666;23.292;2023-01-28T16:54:31;94253.91;;;4.69;62.48
4469;BME280;2247;42.666;23.292;2023-01-28T16:59:34;94283.16;;;4.88;61.85
4469;BME280;2247;42.666;23.292;2023-01-28T17:04:30;94268.59;;;4.59;62.70
4469;BME280;2247;42.666;23.292;2023-01-28T17:06:57;94294.22;;;4.95;62.34
4469;BME280;2247;42.666;23.292;2023-01-28T17:09:26;94301.50;;;4.93;62.69
4469;BME280;2247;42.666;23.292;2023-01-28T17:11:56;94303.88;;;5.11;62.33
4469;BME280;2247;42.666;23.292;2023-01-28T17:14:23;94299.44;;;5.12;62.03
4469;BME280;2247;42.666;23.292;2023-01-28T17:16:53;94298.72;;;5.00;61.99
4469;BME280;2247;42.666;23.292;2023-01-28T17:19:21;94306.78;;;4.98;61.62
4469;BME280;2247;42.666;23.292;2023-01-28T17:21:51;94298.66;;;4.95;61.61
4469;BME280;2247;42.666;23.292;2023-01-28T17:24:18;94309.16;;;5.17;61.12
4469;BME280;2247;42.666;23.292;2023-01-28T17:26:45;94315.38;;;5.49;60.04
4469;BME280;2247;42.666;23.292;2023-01-28T17:29:13;94311.56;;;5.57;59.85
4469;BME280;2247;42.666;23.292;2023-01-28T17:31:42;94314.81;;;5.47;59.79
4469;BME280;2247;42.666;23.292;2023-01-28T17:34:10;94320.41;;;5.17;60.60
4469;BME280;2247;42.666;23.292;2023-01-28T17:36:37;94320.19;;;5.02;61.33
4469;BME280;2247;42.666;23.292;2023-01-28T17:39:08;94312.50;;;4.95;61.65
4469;BME280;2247;42.666;23.292;2023-01-28T17:41:37;94312.66;;;4.89;62.31
4469;BME280;2247;42.666;23.292;2023-01-28T17:44:04;94311.84;;;4.71;62.52
4469;BME280;2247;42.666;23.292;2023-01-28T17:46:33;94307.72;;;4.59;63.06
4469;BME280;2247;42.666;23.292;2023-01-28T17:49:01;94318.16;;;4.59;63.61
4469;BME280;2247;42.666;23.292;2023-01-28T17:51:29;94323.94;;;4.78;63.70
4469;BME280;2247;42.666;23.292;2023-01-28T17:53:56;94334.50;;;4.83;63.52
4469;BME280;2247;42.666;23.292;2023-01-28T17:56:28;94337.59;;;4.96;63.67
4469;BME280;2247;42.666;23.292;2023-01-28T17:58:58;94333.94;;;4.97;63.66
4469;BME280;2247;42.666;23.292;2023-01-28T18:01:26;94336.53;;;5.14;63.47
4469;BME280;2247;42.666;23.292;2023-01-28T18:06:30;94317.56;;;5.02;63.77
4469;BME280;2247;42.666;23.292;2023-01-28T18:08:57;94336.78;;;5.12;63.69
4469;BME280;2247;42.666;23.292;2023-01-28T18:11:24;94339.63;;;4.94;64.32
4469;BME280;2247;42.666;23.292;2023-01-28T18:13:53;94332.28;;;5.08;64.38
4469;BME280;2247;42.666;23.292;2023-01-28T18:16:20;94354.34;;;5.00;64.70
4469;BME280;2247;42.666;23.292;2023-01-28T18:18:48;94342.63;;;4.86;64.91
4469;BME280;2247;42.666;23.292;2023-01-28T18:21:20;94350.72;;;5.01;64.76
4469;BME280;2247;42.666;23.292;2023-01-28T18:23:47;94336.63;;;5.02;64.74
4469;BME280;2247;42.666;23.292;2023-01-28T18:26:14;94361.34;;;5.11;64.12
4469;BME280;2247;42.666;23.292;2023-01-28T18:31:18;94364.31;;;5.20;63.98
4469;BME280;2247;42.666;23.292;2023-01-28T18:36:21;94351.97;;;4.99;63.71
4469;BME280;2247;42.666;23.292;2023-01-28T18:38:49;94365.44;;;5.07;64.22
4469;BME280;2247;42.666;23.292;2023-01-28T18:41:16;94361.78;;;5.08;63.21
4469;BME280;2247;42.666;23.292;2023-01-28T18:43:43;94357.59;;;5.24;62.45
4469;BME280;2247;42.666;23.292;2023-01-28T18:48:47;94376.66;;;5.08;61.17
4469;BME280;2247;42.666;23.292;2023-01-28T18:51:15;94369.22;;;4.83;61.51
4469;BME280;2247;42.666;23.292;2023-01-28T18:53:42;94363.16;;;4.66;61.97
4469;BME280;2247;42.666;23.292;2023-01-28T18:56:10;94351.63;;;4.62;61.77
4469;BME280;2247;42.666;23.292;2023-01-28T18:58:39;94364.16;;;4.77;62.18
4469;BME280;2247;42.666;23.292;2023-01-28T19:01:10;94338.91;;;4.37;62.07
4469;BME280;2247;42.666;23.292;2023-01-28T19:03:38;94376.56;;;4.58;62.19
4469;BME280;2247;42.666;23.292;2023-01-28T19:06:10;94364.31;;;4.42;62.79
4469;BME280;2247;42.666;23.292;2023-01-28T19:08:50;94361.22;;;4.45;63.10
4469;BME280;2247;42.666;23.292;2023-01-28T19:11:23;94356.13;;;4.38;63.36
4469;BME280;2247;42.666;23.292;2023-01-28T19:13:53;94381.19;;;4.39;64.07
4469;BME280;2247;42.666;23.292;2023-01-28T19:16:21;94376.56;;;4.41;64.19
4469;BME280;2247;42.666;23.292;2023-01-28T19:18:53;94374.91;;;4.52;63.67
4469;BME280;2247;42.666;23.292;2023-01-28T19:21:24;94370.03;;;4.55;63.73
4469;BME280;2247;42.666;23.292;2023-01-28T19:23:53;94386.94;;;4.53;63.77
4469;BME280;2247;42.666;23.292;2023-01-28T19:26:21;94387.00;;;4.58;63.85
4469;BME280;2247;42.666;23.292;2023-01-28T19:28:49;94388.16;;;4.62;63.61
4469;BME280;2247;42.666;23.292;2023-01-28T19:31:24;94393.66;;;4.49;63.70
4469;BME280;2247;42.666;23.292;2023-01-28T19:33:55;94395.78;;;4.52;63.80
4469;BME280;2247;42.666;23.292;2023-01-28T19:36:30;94395.69;;;4.47;64.01
4469;BME280;2247;42.666;23.292;2023-01-28T19:41:33;94379.00;;;4.19;64.57
4469;BME280;2247;42.666;23.292;2023-01-28T19:44:01;94387.50;;;4.55;64.15
4469;BME280;2247;42.666;23.292;2023-01-28T19:46:30;94391.22;;;4.59;64.04
4469;BME280;2247;42.666;23.292;2023-01-28T19:49:03;94401.94;;;4.74;63.32
4469;BME280;2247;42.666;23.292;2023-01-28T19:51:33;94396.84;;;4.96;63.08
4469;BME280;2247;42.666;23.292;2023-01-28T19:54:00;94405.53;;;5.01;62.38
4469;BME280;2247;42.666;23.292;2023-01-28T19:56:29;94410.56;;;4.91;62.06
4469;BME280;2247;42.666;23.292;2023-01-28T19:59:01;94387.84;;;4.75;62.53
4469;BME280;2247;42.666;23.292;2023-01-28T20:01:28;94394.84;;;4.58;62.55
4469;BME280;2247;42.666;23.292;2023-01-28T20:03:57;94398.59;;;4.62;62.54
4469;BME280;2247;42.666;23.292;2023-01-28T20:09:04;94410.97;;;4.55;62.74
4469;BME280;2247;42.666;23.292;2023-01-28T20:11:32;94408.25;;;4.50;63.04
4469;BME280;2247;42.666;23.292;2023-01-28T20:14:00;94414.88;;;4.41;63.34
4469;BME280;2247;42.666;23.292;2023-01-28T20:16:29;94410.69;;;4.40;63.54
4469;BME280;2247;42.666;23.292;2023-01-28T20:18:57;94398.84;;;4.20;63.84
4469;BME280;2247;42.666;23.292;2023-01-28T20:21:24;94410.91;;;4.38;64.10
4469;BME280;2247;42.666;23.292;2023-01-28T20:23:53;94392.88;;;4.36;64.22
4469;BME280;2247;42.666;23.292;2023-01-28T20:26:24;94417.22;;;4.54;63.58
4469;BME280;2247;42.666;23.292;2023-01-28T20:28:53;94419.47;;;4.62;62.92
4469;BME280;2247;42.666;23.292;2023-01-28T20:31:24;94390.47;;;4.47;62.73
4469;BME280;2247;42.666;23.292;2023-01-28T20:36:28;94386.72;;;4.14;63.29
4469;BME280;2247;42.666;23.292;2023-01-28T20:41:34;94418.81;;;4.15;63.99
4469;BME280;2247;42.666;23.292;2023-01-28T20:44:01;94419.13;;;4.18;63.75
4469;BME280;2247;42.666;23.292;2023-01-28T20:46:30;94441.03;;;4.06;64.03
4469;BME280;2247;42.666;23.292;2023-01-28T20:54:09;94416.97;;;4.15;63.61
4469;BME280;2247;42.666;23.292;2023-01-28T20:56:39;94431.09;;;4.31;63.82
4469;BME280;2247;42.666;23.292;2023-01-28T20:59:09;94425.09;;;4.42;63.47
4469;BME280;2247;42.666;23.292;2023-01-28T21:01:39;94446.34;;;4.51;63.49